Lake Success — V7NO8 — position and weather

sailwx.info

Track history (hours):
 
Tides and Currents Weather Stations Pressure Air Temp Water Temp Dewpoint Dewpoint Depression Visibility Wind Speed Wind Dir Waves Ship Positions

Lake Success

Last reported at 2017-Oct-12 22:06 UTC. Time now 2017-Oct-22 21:15 UTC.
Position N 39°56' W 032°11'.
Warning: this ship's position is 9 days out of date.

Length 85 m; draft 4.8 m.

Type: Cargo ship. MMSI: 538002989.

Date/timePositionNaut miles runAvg speedWind from/ knotsBaromVisibWave heightAir tempDewpointWater temp
2017-Oct-12 22:06N 39°56' W 032°11'111.9
2017-Oct-12 22:00N 39°56' W 032°10'611.6
2017-Oct-12 21:30N 39°59' W 032°03'811.5
2017-Oct-12 20:47N 40°02' W 031°53'311.8
2017-Oct-12 20:30N 40°04' W 031°49'611.7
2017-Oct-12 20:00N 40°07' W 031°42'611.3
2017-Oct-12 19:30N 40°09' W 031°36'611.2
2017-Oct-12 19:00N 40°12' W 031°29'711.1
2017-Oct-12 18:23N 40°15' W 031°21'511.0
2017-Oct-12 17:56N 40°17' W 031°15'1211.0
2017-Oct-12 16:51N 40°22' W 031°01'710.8
2017-Oct-12 16:10N 40°25' W 030°52'1010.8
2017-Oct-12 15:14N 40°30' W 030°40'210.9
2017-Oct-12 15:00N 40°31' W 030°37'510.8
2017-Oct-12 14:30N 40°33' W 030°31'611.1
2017-Oct-12 14:00N 40°36' W 030°25'611.0
2017-Oct-12 13:30N 40°38' W 030°18'611.1
2017-Oct-12 13:00N 40°41' W 030°11'611.0
2017-Oct-12 12:30N 40°43' W 030°05'611.0
2017-Oct-12 11:55N 40°46' W 029°57'810.9
2017-Oct-12 11:10N 40°49' W 029°47'310.9
2017-Oct-12 10:51N 40°51' W 029°43'411.0
2017-Oct-12 10:30N 40°52' W 029°39'1411.0
2017-Oct-12 09:16N 40°59' W 029°23'  
2017-Oct-08 12:13N 49°23' W 004°52'414.6
2017-Oct-08 11:55N 49°25' W 004°45'614.5
2017-Oct-08 11:30N 49°28' W 004°37'714.3
2017-Oct-08 11:00N 49°31' W 004°27'713.8
2017-Oct-08 10:31N 49°34' W 004°18'713.4
2017-Oct-08 09:59N 49°37' W 004°08'612.9
2017-Oct-08 09:31N 49°40' W 003°60'612.3
2017-Oct-08 09:00N 49°43' W 003°51'611.6
2017-Oct-08 08:31N 49°45' W 003°43'611.2
2017-Oct-08 08:01N 49°47' W 003°35'510.9
2017-Oct-08 07:30N 49°50' W 003°28'510.6
2017-Oct-08 07:00N 49°52' W 003°20'611.1
2017-Oct-08 06:31N 49°55' W 003°13'611.5
2017-Oct-08 06:01N 49°58' W 003°05'612.0
2017-Oct-08 05:30N 49°59' W 002°56'613.0
2017-Oct-08 05:00N 50°01' W 002°47'6015.7
2017-Oct-08 01:11N 50°18' W 001°17'314.3
2017-Oct-08 01:00N 50°19' W 001°13'1512.6
2017-Oct-07 23:48N 50°23' W 000°50'14 9.8
2017-Oct-07 22:22N 50°27' W 000°29'3 9.2
2017-Oct-07 22:01N 50°28' W 000°24'5 9.1
2017-Oct-07 21:30N 50°29' W 000°17'5 9.2
2017-Oct-07 20:58N 50°30' W 000°09'5 9.7
2017-Oct-07 20:31N 50°32' W 000°03'510.3
2017-Oct-07 20:01N 50°33' E 000°05'510.9
2017-Oct-07 19:30N 50°35' E 000°13'611.3
2017-Oct-07 19:01N 50°36' E 000°22'612.3
2017-Oct-07 18:30N 50°37' E 000°32'612.7
2017-Oct-07 18:01N 50°41' E 000°40'612.8
2017-Oct-07 17:30N 50°44' E 000°48'612.5
2017-Oct-07 17:00N 50°48' E 000°57'611.9
2017-Oct-07 16:31N 50°51' E 001°04'611.6
2017-Oct-07 15:59N 50°55' E 001°11'510.8
2017-Oct-07 15:31N 50°59' E 001°18'5 9.7
2017-Oct-07 15:00N 51°02' E 001°23'4 8.9
2017-Oct-07 14:31N 51°04' E 001°29'4 8.0
2017-Oct-07 14:01N 51°07' E 001°33'4 7.7
2017-Oct-07 13:30N 51°10' E 001°38'4 8.2
2017-Oct-07 13:01N 51°12' E 001°44'4 8.8
2017-Oct-07 12:30N 51°16' E 001°47'5 9.6
2017-Oct-07 12:00N 51°20' E 001°52'510.9
2017-Oct-07 11:30N 51°25' E 001°56'611.9
2017-Oct-07 11:01N 51°29' E 002°02'612.6
2017-Oct-07 10:31N 51°34' E 002°09'713.0
2017-Oct-07 10:00N 51°38' E 002°16'713.2
2017-Oct-07 09:28N 51°44' E 002°24'2811.7
2017-Oct-07 07:02N 52°02' E 002°59'111.3
2017-Oct-07 06:59N 52°02' E 003°00'611.0
2017-Oct-07 06:26N 52°03' E 003°10'510.9
2017-Oct-07 06:00N 52°03' E 003°17'610.9
2017-Oct-07 05:28N 52°03' E 003°27'510.8
2017-Oct-07 04:59N 52°04' E 003°35'510.5
2017-Oct-07 04:31N 52°04' E 003°44'510.3
2017-Oct-07 04:00N 52°04' E 003°52'3 5.7
2017-Oct-07 03:31N 52°03' E 003°56'4 8.6
2017-Oct-07 03:01N 52°00' E 004°01'4 7.5
2017-Oct-07 02:30N 51°57' E 004°05'1 1.9
2017-Oct-07 01:59N 51°56' E 004°04'0 0.7
2017-Oct-07 01:29N 51°56' E 004°03'0 0.0
2017-Oct-07 00:59N 51°56' E 004°03'0 0.0
2017-Oct-07 00:29N 51°56' E 004°03'0 0.0
2017-Oct-06 23:59N 51°56' E 004°03'0 0.0
2017-Oct-06 23:29N 51°56' E 004°03'0 0.0
2017-Oct-06 22:59N 51°56' E 004°03'0 0.0
2017-Oct-06 22:29N 51°56' E 004°03'0 0.0
2017-Oct-06 21:59N 51°56' E 004°03'0 0.0
2017-Oct-06 21:29N 51°56' E 004°03'0 0.0
2017-Oct-06 20:59N 51°56' E 004°03'0 0.0
2017-Oct-06 20:29N 51°56' E 004°03'0 0.0
2017-Oct-06 19:59N 51°56' E 004°03'0 0.0
2017-Oct-06 19:29N 51°56' E 004°03'0 0.0
2017-Oct-06 18:59N 51°56' E 004°03'0 0.0
2017-Oct-06 18:29N 51°56' E 004°03'0 0.0
2017-Oct-06 17:59N 51°56' E 004°03'0 0.0
2017-Oct-06 17:29N 51°56' E 004°03'0 0.0
2017-Oct-06 16:56N 51°56' E 004°03'0 0.0
2017-Oct-06 16:29N 51°56' E 004°03'0 0.0
2017-Oct-06 15:59N 51°56' E 004°03'0 0.0
2017-Oct-06 15:29N 51°56' E 004°03'0 0.0
2017-Oct-06 14:59N 51°56' E 004°03'0 0.0
2017-Oct-06 14:29N 51°56' E 004°03'0 0.0
2017-Oct-06 13:59N 51°56' E 004°03'0 0.0
2017-Oct-06 13:29N 51°56' E 004°03'0 0.0
2017-Oct-06 12:59N 51°56' E 004°03'0 0.0
2017-Oct-06 12:29N 51°56' E 004°03'0 0.0
2017-Oct-06 11:59N 51°56' E 004°03'0 0.0
2017-Oct-06 11:29N 51°56' E 004°03'0 0.0
2017-Oct-06 10:59N 51°56' E 004°03'0 0.0
2017-Oct-06 10:29N 51°56' E 004°03'0 0.0
2017-Oct-06 09:59N 51°56' E 004°03'0 0.0
2017-Oct-06 09:29N 51°56' E 004°03'0 0.0
2017-Oct-06 08:59N 51°56' E 004°03'0 0.0
2017-Oct-06 08:29N 51°56' E 004°03'0 0.0
2017-Oct-06 07:59N 51°56' E 004°03'0 0.0
2017-Oct-06 07:26N 51°56' E 004°03'0 0.0
2017-Oct-06 06:59N 51°56' E 004°03'0 0.0
2017-Oct-06 06:29N 51°56' E 004°03'0 0.0
2017-Oct-06 05:59N 51°56' E 004°03'0 0.0
2017-Oct-06 05:29N 51°56' E 004°03'0 0.0
2017-Oct-06 04:59N 51°56' E 004°03'0 0.0
2017-Oct-06 04:29N 51°56' E 004°03'0 0.0
2017-Oct-06 03:59N 51°56' E 004°03'0 0.0
2017-Oct-06 03:29N 51°56' E 004°03'0 0.0
2017-Oct-06 02:59N 51°56' E 004°03'0 0.0
2017-Oct-06 02:29N 51°56' E 004°03'0 0.0
2017-Oct-06 01:59N 51°56' E 004°03'0 0.0
2017-Oct-06 01:29N 51°56' E 004°03'0 0.0
2017-Oct-06 00:59N 51°56' E 004°03'0 0.0
2017-Oct-06 00:29N 51°56' E 004°03'0 0.0
2017-Oct-05 23:59N 51°56' E 004°03'0 0.0
2017-Oct-05 23:29N 51°56' E 004°03'0 0.0
2017-Oct-05 22:59N 51°56' E 004°03'0 0.0
2017-Oct-05 22:29N 51°56' E 004°03'0 0.0
2017-Oct-05 21:59N 51°56' E 004°03'0 0.0
2017-Oct-05 21:29N 51°56' E 004°03'0 0.0
2017-Oct-05 20:59N 51°56' E 004°03'0 0.0
2017-Oct-05 20:29N 51°56' E 004°03'0 0.0
2017-Oct-05 19:59N 51°56' E 004°03'0 0.0
2017-Oct-05 19:29N 51°56' E 004°03'0 0.0
2017-Oct-05 18:59N 51°56' E 004°03'0 0.0
2017-Oct-05 18:29N 51°56' E 004°03'0 0.0
2017-Oct-05 17:59N 51°56' E 004°03'0 0.0
2017-Oct-05 17:29N 51°56' E 004°03'0 0.0
2017-Oct-05 16:59N 51°56' E 004°03'0 0.0
2017-Oct-05 15:29N 51°56' E 004°03'0 0.0
2017-Oct-05 14:59N 51°56' E 004°03'0 0.0
2017-Oct-05 14:29N 51°56' E 004°03'0 0.0
2017-Oct-05 13:59N 51°56' E 004°03'0 0.0
2017-Oct-05 13:29N 51°56' E 004°03'0 0.0
2017-Oct-05 12:59N 51°56' E 004°03'0 0.0
2017-Oct-05 12:29N 51°56' E 004°03'0 0.0
2017-Oct-05 11:59N 51°56' E 004°03'0 0.0
2017-Oct-05 11:29N 51°56' E 004°03'0 0.0
2017-Oct-05 10:59N 51°56' E 004°03'0 0.0
2017-Oct-05 10:29N 51°56' E 004°03'0 0.0
2017-Oct-05 09:59N 51°56' E 004°03'0 0.0
2017-Oct-05 09:29N 51°56' E 004°03'0 0.0
2017-Oct-05 08:59N 51°56' E 004°03'0 0.0
2017-Oct-05 08:29N 51°56' E 004°03'0 0.0
2017-Oct-05 07:59N 51°56' E 004°03'0 0.0
2017-Oct-05 07:29N 51°56' E 004°03'0 0.0
2017-Oct-05 06:59N 51°56' E 004°03'0 0.0
2017-Oct-05 06:29N 51°56' E 004°03'0 0.0
2017-Oct-05 05:59N 51°56' E 004°03'0 0.0
2017-Oct-05 05:29N 51°56' E 004°03'0 0.0
2017-Oct-05 04:59N 51°56' E 004°03'0 0.0
2017-Oct-05 04:29N 51°56' E 004°03'0 0.0
2017-Oct-05 03:59N 51°56' E 004°03'0 0.0
2017-Oct-05 03:29N 51°56' E 004°03'0 0.0
2017-Oct-05 02:59N 51°56' E 004°03'0 0.0
2017-Oct-05 02:29N 51°56' E 004°03'0 0.0
2017-Oct-05 01:59N 51°56' E 004°03'0 0.0
2017-Oct-05 01:29N 51°56' E 004°03'0 0.0
2017-Oct-05 00:59N 51°56' E 004°03'0 0.0
2017-Oct-05 00:29N 51°56' E 004°03'0 0.0
2017-Oct-04 23:59N 51°56' E 004°03'0 0.0
2017-Oct-04 23:29N 51°56' E 004°03'0 0.0
2017-Oct-04 22:59N 51°56' E 004°03'0 0.0
2017-Oct-04 22:29N 51°56' E 004°03'0 0.0
2017-Oct-04 21:59N 51°56' E 004°03'0 0.0
2017-Oct-04 21:29N 51°56' E 004°03'0 0.0
2017-Oct-04 20:59N 51°56' E 004°03'0 0.0
2017-Oct-04 20:29N 51°56' E 004°03'0 0.0
2017-Oct-04 19:59N 51°56' E 004°03'0 0.0
2017-Oct-04 19:29N 51°56' E 004°03'0 0.0
2017-Oct-04 18:59N 51°56' E 004°03'0 0.0
2017-Oct-04 18:29N 51°56' E 004°03'0 0.0
2017-Oct-04 17:59N 51°56' E 004°03'0 0.0
2017-Oct-04 17:29N 51°56' E 004°03'0 0.0
2017-Oct-04 16:59N 51°56' E 004°03'0 0.0
2017-Oct-04 16:29N 51°56' E 004°03'0 0.0
2017-Oct-04 15:59N 51°56' E 004°03'0 0.0
2017-Oct-04 15:29N 51°56' E 004°03'0 0.0
2017-Oct-04 14:59N 51°56' E 004°03'0 0.0
2017-Oct-04 14:29N 51°56' E 004°03'0 0.0
2017-Oct-04 13:59N 51°56' E 004°03'0 0.0
2017-Oct-04 13:29N 51°56' E 004°03'0 0.0
2017-Oct-04 12:59N 51°56' E 004°03'0 0.0
2017-Oct-04 12:29N 51°56' E 004°03'0 0.0
2017-Oct-04 11:59N 51°56' E 004°03'0 0.0
2017-Oct-04 11:29N 51°56' E 004°03'0 0.0
2017-Oct-04 10:59N 51°56' E 004°03'0 0.0
2017-Oct-04 10:29N 51°56' E 004°03'0 0.0
2017-Oct-04 09:59N 51°56' E 004°03'0 0.0
2017-Oct-04 09:29N 51°56' E 004°03'0 0.0
2017-Oct-04 08:59N 51°56' E 004°03'0 0.0
2017-Oct-04 08:29N 51°56' E 004°03'0 0.0
2017-Oct-04 07:59N 51°56' E 004°03'0 0.0
2017-Oct-04 07:29N 51°56' E 004°03'0 0.0
2017-Oct-04 06:59N 51°56' E 004°03'0 0.0
2017-Oct-04 06:29N 51°56' E 004°03'0 0.0
2017-Oct-04 05:59N 51°56' E 004°03'0 0.0
2017-Oct-04 05:29N 51°56' E 004°03'0 0.0
2017-Oct-04 04:56N 51°56' E 004°03'0 0.0
2017-Oct-04 04:29N 51°56' E 004°03'0 0.0
2017-Oct-04 03:59N 51°56' E 004°03'0 0.0
2017-Oct-04 03:29N 51°56' E 004°03'0 0.0
2017-Oct-04 02:59N 51°56' E 004°03'0 0.0
2017-Oct-04 02:29N 51°56' E 004°03'0 0.0
2017-Oct-04 01:59N 51°56' E 004°03'0 0.0
2017-Oct-04 01:29N 51°56' E 004°03'0 0.0
2017-Oct-04 00:59N 51°56' E 004°03'0 0.0
2017-Oct-04 00:29N 51°56' E 004°03'0 0.0
2017-Oct-03 23:59N 51°56' E 004°03'0 0.0
2017-Oct-03 23:29N 51°56' E 004°03'0 0.0
2017-Oct-03 22:59N 51°56' E 004°03'0 0.0
2017-Oct-03 22:29N 51°56' E 004°03'0 0.0
2017-Oct-03 21:59N 51°56' E 004°03'0 0.0
2017-Oct-03 21:29N 51°56' E 004°03'0 0.0
2017-Oct-03 20:59N 51°56' E 004°03'0 0.0
2017-Oct-03 20:29N 51°56' E 004°03'0 0.0
2017-Oct-03 19:59N 51°56' E 004°03'0 0.0
2017-Oct-03 19:29N 51°56' E 004°03'0 0.0
2017-Oct-03 18:59N 51°56' E 004°03'0 0.0
2017-Oct-03 18:29N 51°56' E 004°03'0 0.0
2017-Oct-03 17:59N 51°56' E 004°03'0 0.0
2017-Oct-03 17:29N 51°56' E 004°03'0 0.0
2017-Oct-03 16:59N 51°56' E 004°03'0 0.0
2017-Oct-03 16:29N 51°56' E 004°03'0 0.0
2017-Oct-03 15:59N 51°56' E 004°03'0 0.0
2017-Oct-03 15:29N 51°56' E 004°03'0 0.0
2017-Oct-03 14:59N 51°56' E 004°03'0 0.0
2017-Oct-03 13:59N 51°56' E 004°03'0 0.0
2017-Oct-03 13:29N 51°56' E 004°03'0 0.0
2017-Oct-03 12:56N 51°56' E 004°03'0 0.0
2017-Oct-03 12:29N 51°56' E 004°03'0 0.0
2017-Oct-03 11:59N 51°56' E 004°03'0 0.0
2017-Oct-03 11:29N 51°56' E 004°03'0 0.0
2017-Oct-03 10:59N 51°56' E 004°03'0 0.0
2017-Oct-03 10:29N 51°56' E 004°03'0 0.0
2017-Oct-03 09:59N 51°56' E 004°03'0 0.0
2017-Oct-03 09:29N 51°56' E 004°03'0 0.0
2017-Oct-03 08:56N 51°56' E 004°03'0 0.0
2017-Oct-03 08:29N 51°56' E 004°03'0 0.0
2017-Oct-03 07:59N 51°56' E 004°03'0 0.0
2017-Oct-03 07:29N 51°56' E 004°03'0 0.0
2017-Oct-03 06:59N 51°56' E 004°03'0 0.0
2017-Oct-03 06:29N 51°56' E 004°03'0 0.0
2017-Oct-03 05:59N 51°56' E 004°03'0 0.0
2017-Oct-03 05:29N 51°56' E 004°03'0 0.0
2017-Oct-03 04:59N 51°56' E 004°03'0 0.0
2017-Oct-03 04:29N 51°56' E 004°03'0 0.0
2017-Oct-03 03:59N 51°56' E 004°03'0 0.0
2017-Oct-03 03:29N 51°56' E 004°03'0 0.0
2017-Oct-03 02:59N 51°56' E 004°03'0 0.0
2017-Oct-03 02:29N 51°56' E 004°03'0 0.0
2017-Oct-03 01:59N 51°56' E 004°03'0 0.0
2017-Oct-03 01:29N 51°56' E 004°03'0 0.0
2017-Oct-03 00:59N 51°56' E 004°03'0 0.0
2017-Oct-03 00:29N 51°56' E 004°03'0 0.0
2017-Oct-02 23:59N 51°56' E 004°03'0 0.0
2017-Oct-02 23:29N 51°56' E 004°03'0 0.0
2017-Oct-02 22:59N 51°56' E 004°03'0 0.0
2017-Oct-02 22:26N 51°56' E 004°03'  
Track history (hours):
 
Tides and Currents Weather Stations Pressure Air Temp Water Temp Dewpoint Dewpoint Depression Visibility Wind Speed Wind Dir Waves Ship Positions

Lake Success

Last reported at 2017-Oct-12 22:06 UTC. Time now 2017-Oct-22 21:15 UTC.
Position N 39°56' W 032°11'.
Warning: this ship's position is 9 days out of date.

Length 85 m; draft 4.8 m.

Type: Cargo ship. MMSI: 538002989.

Date/timePositionNaut miles runAvg speedWind from/ knotsBaromVisibWave heightAir tempDewpointWater temp
2017-Oct-12 22:06N 39°56' W 032°11'111.9
2017-Oct-12 22:00N 39°56' W 032°10'611.6
2017-Oct-12 21:30N 39°59' W 032°03'811.5
2017-Oct-12 20:47N 40°02' W 031°53'311.8
2017-Oct-12 20:30N 40°04' W 031°49'611.7
2017-Oct-12 20:00N 40°07' W 031°42'611.3
2017-Oct-12 19:30N 40°09' W 031°36'611.2
2017-Oct-12 19:00N 40°12' W 031°29'711.1
2017-Oct-12 18:23N 40°15' W 031°21'511.0
2017-Oct-12 17:56N 40°17' W 031°15'1211.0
2017-Oct-12 16:51N 40°22' W 031°01'710.8
2017-Oct-12 16:10N 40°25' W 030°52'1010.8
2017-Oct-12 15:14N 40°30' W 030°40'210.9
2017-Oct-12 15:00N 40°31' W 030°37'510.8
2017-Oct-12 14:30N 40°33' W 030°31'611.1
2017-Oct-12 14:00N 40°36' W 030°25'611.0
2017-Oct-12 13:30N 40°38' W 030°18'611.1
2017-Oct-12 13:00N 40°41' W 030°11'611.0
2017-Oct-12 12:30N 40°43' W 030°05'611.0
2017-Oct-12 11:55N 40°46' W 029°57'810.9
2017-Oct-12 11:10N 40°49' W 029°47'310.9
2017-Oct-12 10:51N 40°51' W 029°43'411.0
2017-Oct-12 10:30N 40°52' W 029°39'1411.0
2017-Oct-12 09:16N 40°59' W 029°23'  
2017-Oct-08 12:13N 49°23' W 004°52'414.6
2017-Oct-08 11:55N 49°25' W 004°45'614.5
2017-Oct-08 11:30N 49°28' W 004°37'714.3
2017-Oct-08 11:00N 49°31' W 004°27'713.8
2017-Oct-08 10:31N 49°34' W 004°18'713.4
2017-Oct-08 09:59N 49°37' W 004°08'612.9
2017-Oct-08 09:31N 49°40' W 003°60'612.3
2017-Oct-08 09:00N 49°43' W 003°51'611.6
2017-Oct-08 08:31N 49°45' W 003°43'611.2
2017-Oct-08 08:01N 49°47' W 003°35'510.9
2017-Oct-08 07:30N 49°50' W 003°28'510.6
2017-Oct-08 07:00N 49°52' W 003°20'611.1
2017-Oct-08 06:31N 49°55' W 003°13'611.5
2017-Oct-08 06:01N 49°58' W 003°05'612.0
2017-Oct-08 05:30N 49°59' W 002°56'613.0
2017-Oct-08 05:00N 50°01' W 002°47'6015.7
2017-Oct-08 01:11N 50°18' W 001°17'314.3
2017-Oct-08 01:00N 50°19' W 001°13'1512.6
2017-Oct-07 23:48N 50°23' W 000°50'14 9.8
2017-Oct-07 22:22N 50°27' W 000°29'3 9.2
2017-Oct-07 22:01N 50°28' W 000°24'5 9.1
2017-Oct-07 21:30N 50°29' W 000°17'5 9.2
2017-Oct-07 20:58N 50°30' W 000°09'5 9.7
2017-Oct-07 20:31N 50°32' W 000°03'510.3
2017-Oct-07 20:01N 50°33' E 000°05'510.9
2017-Oct-07 19:30N 50°35' E 000°13'611.3
2017-Oct-07 19:01N 50°36' E 000°22'612.3
2017-Oct-07 18:30N 50°37' E 000°32'612.7
2017-Oct-07 18:01N 50°41' E 000°40'612.8
2017-Oct-07 17:30N 50°44' E 000°48'612.5
2017-Oct-07 17:00N 50°48' E 000°57'611.9
2017-Oct-07 16:31N 50°51' E 001°04'611.6
2017-Oct-07 15:59N 50°55' E 001°11'510.8
2017-Oct-07 15:31N 50°59' E 001°18'5 9.7
2017-Oct-07 15:00N 51°02' E 001°23'4 8.9
2017-Oct-07 14:31N 51°04' E 001°29'4 8.0
2017-Oct-07 14:01N 51°07' E 001°33'4 7.7
2017-Oct-07 13:30N 51°10' E 001°38'4 8.2
2017-Oct-07 13:01N 51°12' E 001°44'4 8.8
2017-Oct-07 12:30N 51°16' E 001°47'5 9.6
2017-Oct-07 12:00N 51°20' E 001°52'510.9
2017-Oct-07 11:30N 51°25' E 001°56'611.9
2017-Oct-07 11:01N 51°29' E 002°02'612.6
2017-Oct-07 10:31N 51°34' E 002°09'713.0
2017-Oct-07 10:00N 51°38' E 002°16'713.2
2017-Oct-07 09:28N 51°44' E 002°24'2811.7
2017-Oct-07 07:02N 52°02' E 002°59'111.3
2017-Oct-07 06:59N 52°02' E 003°00'611.0
2017-Oct-07 06:26N 52°03' E 003°10'510.9
2017-Oct-07 06:00N 52°03' E 003°17'610.9
2017-Oct-07 05:28N 52°03' E 003°27'510.8
2017-Oct-07 04:59N 52°04' E 003°35'510.5
2017-Oct-07 04:31N 52°04' E 003°44'510.3
2017-Oct-07 04:00N 52°04' E 003°52'3 5.7
2017-Oct-07 03:31N 52°03' E 003°56'4 8.6
2017-Oct-07 03:01N 52°00' E 004°01'4 7.5
2017-Oct-07 02:30N 51°57' E 004°05'1 1.9
2017-Oct-07 01:59N 51°56' E 004°04'0 0.7
2017-Oct-07 01:29N 51°56' E 004°03'0 0.0
2017-Oct-07 00:59N 51°56' E 004°03'0 0.0
2017-Oct-07 00:29N 51°56' E 004°03'0 0.0
2017-Oct-06 23:59N 51°56' E 004°03'0 0.0
2017-Oct-06 23:29N 51°56' E 004°03'0 0.0
2017-Oct-06 22:59N 51°56' E 004°03'0 0.0
2017-Oct-06 22:29N 51°56' E 004°03'0 0.0
2017-Oct-06 21:59N 51°56' E 004°03'0 0.0
2017-Oct-06 21:29N 51°56' E 004°03'0 0.0
2017-Oct-06 20:59N 51°56' E 004°03'0 0.0
2017-Oct-06 20:29N 51°56' E 004°03'0 0.0
2017-Oct-06 19:59N 51°56' E 004°03'0 0.0
2017-Oct-06 19:29N 51°56' E 004°03'0 0.0
2017-Oct-06 18:59N 51°56' E 004°03'0 0.0
2017-Oct-06 18:29N 51°56' E 004°03'0 0.0
2017-Oct-06 17:59N 51°56' E 004°03'0 0.0
2017-Oct-06 17:29N 51°56' E 004°03'0 0.0
2017-Oct-06 16:56N 51°56' E 004°03'0 0.0
2017-Oct-06 16:29N 51°56' E 004°03'0 0.0
2017-Oct-06 15:59N 51°56' E 004°03'0 0.0
2017-Oct-06 15:29N 51°56' E 004°03'0 0.0
2017-Oct-06 14:59N 51°56' E 004°03'0 0.0
2017-Oct-06 14:29N 51°56' E 004°03'0 0.0
2017-Oct-06 13:59N 51°56' E 004°03'0 0.0
2017-Oct-06 13:29N 51°56' E 004°03'0 0.0
2017-Oct-06 12:59N 51°56' E 004°03'0 0.0
2017-Oct-06 12:29N 51°56' E 004°03'0 0.0
2017-Oct-06 11:59N 51°56' E 004°03'0 0.0
2017-Oct-06 11:29N 51°56' E 004°03'0 0.0
2017-Oct-06 10:59N 51°56' E 004°03'0 0.0
2017-Oct-06 10:29N 51°56' E 004°03'0 0.0
2017-Oct-06 09:59N 51°56' E 004°03'0 0.0
2017-Oct-06 09:29N 51°56' E 004°03'0 0.0
2017-Oct-06 08:59N 51°56' E 004°03'0 0.0
2017-Oct-06 08:29N 51°56' E 004°03'0 0.0
2017-Oct-06 07:59N 51°56' E 004°03'0 0.0
2017-Oct-06 07:26N 51°56' E 004°03'0 0.0
2017-Oct-06 06:59N 51°56' E 004°03'0 0.0
2017-Oct-06 06:29N 51°56' E 004°03'0 0.0
2017-Oct-06 05:59N 51°56' E 004°03'0 0.0
2017-Oct-06 05:29N 51°56' E 004°03'0 0.0
2017-Oct-06 04:59N 51°56' E 004°03'0 0.0
2017-Oct-06 04:29N 51°56' E 004°03'0 0.0
2017-Oct-06 03:59N 51°56' E 004°03'0 0.0
2017-Oct-06 03:29N 51°56' E 004°03'0 0.0
2017-Oct-06 02:59N 51°56' E 004°03'0 0.0
2017-Oct-06 02:29N 51°56' E 004°03'0 0.0
2017-Oct-06 01:59N 51°56' E 004°03'0 0.0
2017-Oct-06 01:29N 51°56' E 004°03'0 0.0
2017-Oct-06 00:59N 51°56' E 004°03'0 0.0
2017-Oct-06 00:29N 51°56' E 004°03'0 0.0
2017-Oct-05 23:59N 51°56' E 004°03'0 0.0
2017-Oct-05 23:29N 51°56' E 004°03'0 0.0
2017-Oct-05 22:59N 51°56' E 004°03'0 0.0
2017-Oct-05 22:29N 51°56' E 004°03'0 0.0
2017-Oct-05 21:59N 51°56' E 004°03'0 0.0
2017-Oct-05 21:29N 51°56' E 004°03'0 0.0
2017-Oct-05 20:59N 51°56' E 004°03'0 0.0
2017-Oct-05 20:29N 51°56' E 004°03'0 0.0
2017-Oct-05 19:59N 51°56' E 004°03'0 0.0
2017-Oct-05 19:29N 51°56' E 004°03'0 0.0
2017-Oct-05 18:59N 51°56' E 004°03'0 0.0
2017-Oct-05 18:29N 51°56' E 004°03'0 0.0
2017-Oct-05 17:59N 51°56' E 004°03'0 0.0
2017-Oct-05 17:29N 51°56' E 004°03'0 0.0
2017-Oct-05 16:59N 51°56' E 004°03'0 0.0
2017-Oct-05 15:29N 51°56' E 004°03'0 0.0
2017-Oct-05 14:59N 51°56' E 004°03'0 0.0
2017-Oct-05 14:29N 51°56' E 004°03'0 0.0
2017-Oct-05 13:59N 51°56' E 004°03'0 0.0
2017-Oct-05 13:29N 51°56' E 004°03'0 0.0
2017-Oct-05 12:59N 51°56' E 004°03'0 0.0
2017-Oct-05 12:29N 51°56' E 004°03'0 0.0
2017-Oct-05 11:59N 51°56' E 004°03'0 0.0
2017-Oct-05 11:29N 51°56' E 004°03'0 0.0
2017-Oct-05 10:59N 51°56' E 004°03'0 0.0
2017-Oct-05 10:29N 51°56' E 004°03'0 0.0
2017-Oct-05 09:59N 51°56' E 004°03'0 0.0
2017-Oct-05 09:29N 51°56' E 004°03'0 0.0
2017-Oct-05 08:59N 51°56' E 004°03'0 0.0
2017-Oct-05 08:29N 51°56' E 004°03'0 0.0
2017-Oct-05 07:59N 51°56' E 004°03'0 0.0
2017-Oct-05 07:29N 51°56' E 004°03'0 0.0
2017-Oct-05 06:59N 51°56' E 004°03'0 0.0
2017-Oct-05 06:29N 51°56' E 004°03'0 0.0
2017-Oct-05 05:59N 51°56' E 004°03'0 0.0
2017-Oct-05 05:29N 51°56' E 004°03'0 0.0
2017-Oct-05 04:59N 51°56' E 004°03'0 0.0
2017-Oct-05 04:29N 51°56' E 004°03'0 0.0
2017-Oct-05 03:59N 51°56' E 004°03'0 0.0
2017-Oct-05 03:29N 51°56' E 004°03'0 0.0
2017-Oct-05 02:59N 51°56' E 004°03'0 0.0
2017-Oct-05 02:29N 51°56' E 004°03'0 0.0
2017-Oct-05 01:59N 51°56' E 004°03'0 0.0
2017-Oct-05 01:29N 51°56' E 004°03'0 0.0
2017-Oct-05 00:59N 51°56' E 004°03'0 0.0
2017-Oct-05 00:29N 51°56' E 004°03'0 0.0
2017-Oct-04 23:59N 51°56' E 004°03'0 0.0
2017-Oct-04 23:29N 51°56' E 004°03'0 0.0
2017-Oct-04 22:59N 51°56' E 004°03'0 0.0
2017-Oct-04 22:29N 51°56' E 004°03'0 0.0
2017-Oct-04 21:59N 51°56' E 004°03'0 0.0
2017-Oct-04 21:29N 51°56' E 004°03'0 0.0
2017-Oct-04 20:59N 51°56' E 004°03'0 0.0
2017-Oct-04 20:29N 51°56' E 004°03'0 0.0
2017-Oct-04 19:59N 51°56' E 004°03'0 0.0
2017-Oct-04 19:29N 51°56' E 004°03'0 0.0
2017-Oct-04 18:59N 51°56' E 004°03'0 0.0
2017-Oct-04 18:29N 51°56' E 004°03'0 0.0
2017-Oct-04 17:59N 51°56' E 004°03'0 0.0
2017-Oct-04 17:29N 51°56' E 004°03'0 0.0
2017-Oct-04 16:59N 51°56' E 004°03'0 0.0
2017-Oct-04 16:29N 51°56' E 004°03'0 0.0
2017-Oct-04 15:59N 51°56' E 004°03'0 0.0
2017-Oct-04 15:29N 51°56' E 004°03'0 0.0
2017-Oct-04 14:59N 51°56' E 004°03'0 0.0
2017-Oct-04 14:29N 51°56' E 004°03'0 0.0
2017-Oct-04 13:59N 51°56' E 004°03'0 0.0
2017-Oct-04 13:29N 51°56' E 004°03'0 0.0
2017-Oct-04 12:59N 51°56' E 004°03'0 0.0
2017-Oct-04 12:29N 51°56' E 004°03'0 0.0
2017-Oct-04 11:59N 51°56' E 004°03'0 0.0
2017-Oct-04 11:29N 51°56' E 004°03'0 0.0
2017-Oct-04 10:59N 51°56' E 004°03'0 0.0
2017-Oct-04 10:29N 51°56' E 004°03'0 0.0
2017-Oct-04 09:59N 51°56' E 004°03'0 0.0
2017-Oct-04 09:29N 51°56' E 004°03'0 0.0
2017-Oct-04 08:59N 51°56' E 004°03'0 0.0
2017-Oct-04 08:29N 51°56' E 004°03'0 0.0
2017-Oct-04 07:59N 51°56' E 004°03'0 0.0
2017-Oct-04 07:29N 51°56' E 004°03'0 0.0
2017-Oct-04 06:59N 51°56' E 004°03'0 0.0
2017-Oct-04 06:29N 51°56' E 004°03'0 0.0
2017-Oct-04 05:59N 51°56' E 004°03'0 0.0
2017-Oct-04 05:29N 51°56' E 004°03'0 0.0
2017-Oct-04 04:56N 51°56' E 004°03'0 0.0
2017-Oct-04 04:29N 51°56' E 004°03'0 0.0
2017-Oct-04 03:59N 51°56' E 004°03'0 0.0
2017-Oct-04 03:29N 51°56' E 004°03'0 0.0
2017-Oct-04 02:59N 51°56' E 004°03'0 0.0
2017-Oct-04 02:29N 51°56' E 004°03'0 0.0
2017-Oct-04 01:59N 51°56' E 004°03'0 0.0
2017-Oct-04 01:29N 51°56' E 004°03'0 0.0
2017-Oct-04 00:59N 51°56' E 004°03'0 0.0
2017-Oct-04 00:29N 51°56' E 004°03'0 0.0
2017-Oct-03 23:59N 51°56' E 004°03'0 0.0
2017-Oct-03 23:29N 51°56' E 004°03'0 0.0
2017-Oct-03 22:59N 51°56' E 004°03'0 0.0
2017-Oct-03 22:29N 51°56' E 004°03'0 0.0
2017-Oct-03 21:59N 51°56' E 004°03'0 0.0
2017-Oct-03 21:29N 51°56' E 004°03'0 0.0
2017-Oct-03 20:59N 51°56' E 004°03'0 0.0
2017-Oct-03 20:29N 51°56' E 004°03'0 0.0
2017-Oct-03 19:59N 51°56' E 004°03'0 0.0
2017-Oct-03 19:29N 51°56' E 004°03'0 0.0
2017-Oct-03 18:59N 51°56' E 004°03'0 0.0
2017-Oct-03 18:29N 51°56' E 004°03'0 0.0
2017-Oct-03 17:59N 51°56' E 004°03'0 0.0
2017-Oct-03 17:29N 51°56' E 004°03'0 0.0
2017-Oct-03 16:59N 51°56' E 004°03'0 0.0
2017-Oct-03 16:29N 51°56' E 004°03'0 0.0
2017-Oct-03 15:59N 51°56' E 004°03'0 0.0
2017-Oct-03 15:29N 51°56' E 004°03'0 0.0
2017-Oct-03 14:59N 51°56' E 004°03'0 0.0
2017-Oct-03 13:59N 51°56' E 004°03'0 0.0
2017-Oct-03 13:29N 51°56' E 004°03'0 0.0
2017-Oct-03 12:56N 51°56' E 004°03'0 0.0
2017-Oct-03 12:29N 51°56' E 004°03'0 0.0
2017-Oct-03 11:59N 51°56' E 004°03'0 0.0
2017-Oct-03 11:29N 51°56' E 004°03'0 0.0
2017-Oct-03 10:59N 51°56' E 004°03'0 0.0
2017-Oct-03 10:29N 51°56' E 004°03'0 0.0
2017-Oct-03 09:59N 51°56' E 004°03'0 0.0
2017-Oct-03 09:29N 51°56' E 004°03'0 0.0
2017-Oct-03 08:56N 51°56' E 004°03'0 0.0
2017-Oct-03 08:29N 51°56' E 004°03'0 0.0
2017-Oct-03 07:59N 51°56' E 004°03'0 0.0
2017-Oct-03 07:29N 51°56' E 004°03'0 0.0
2017-Oct-03 06:59N 51°56' E 004°03'0 0.0
2017-Oct-03 06:29N 51°56' E 004°03'0 0.0
2017-Oct-03 05:59N 51°56' E 004°03'0 0.0
2017-Oct-03 05:29N 51°56' E 004°03'0 0.0
2017-Oct-03 04:59N 51°56' E 004°03'0 0.0
2017-Oct-03 04:29N 51°56' E 004°03'0 0.0
2017-Oct-03 03:59N 51°56' E 004°03'0 0.0
2017-Oct-03 03:29N 51°56' E 004°03'0 0.0
2017-Oct-03 02:59N 51°56' E 004°03'0 0.0
2017-Oct-03 02:29N 51°56' E 004°03'0 0.0
2017-Oct-03 01:59N 51°56' E 004°03'0 0.0
2017-Oct-03 01:29N 51°56' E 004°03'0 0.0
2017-Oct-03 00:59N 51°56' E 004°03'0 0.0
2017-Oct-03 00:29N 51°56' E 004°03'0 0.0
2017-Oct-02 23:59N 51°56' E 004°03'0 0.0
2017-Oct-02 23:29N 51°56' E 004°03'0 0.0
2017-Oct-02 22:59N 51°56' E 004°03'0 0.0
2017-Oct-02 22:26N 51°56' E 004°03'  

Dump ship's entire track history